sensor_id;sensor_type;location;lat;lon;timestamp;temperature;humidity
21563;DHT22;10942;47.894;11.424;2023-05-19T01:56:00;9.10;99.90
21563;DHT22;10942;47.894;11.424;2023-05-19T01:58:31;8.70;99.90
21563;DHT22;10942;47.894;11.424;2023-05-19T02:01:02;8.70;99.90
21563;DHT22;10942;47.894;11.424;2023-05-19T02:03:55;8.70;99.90
21563;DHT22;10942;47.894;11.424;2023-05-19T02:11:36;8.70;99.90
21563;DHT22;10942;47.894;11.424;2023-05-19T02:14:17;8.70;99.90
21563;DHT22;10942;47.894;11.424;2023-05-19T02:16:47;8.70;99.90
21563;DHT22;10942;47.894;11.424;2023-05-19T02:19:24;8.60;99.90
21563;DHT22;10942;47.894;11.424;2023-05-19T02:21:51;8.70;99.90
21563;DHT22;10942;47.894;11.424;2023-05-19T02:24:20;8.70;99.90
21563;DHT22;10942;47.894;11.424;2023-05-19T02:26:50;8.60;99.90
21563;DHT22;10942;47.894;11.424;2023-05-19T02:29:18;8.70;99.90
21563;DHT22;10942;47.894;11.424;2023-05-19T02:31:44;8.70;99.90
21563;DHT22;10942;47.894;11.424;2023-05-19T02:34:09;8.70;99.90
21563;DHT22;10942;47.894;11.424;2023-05-19T02:36:37;8.70;99.90
21563;DHT22;10942;47.894;11.424;2023-05-19T02:39:03;8.70;99.90
21563;DHT22;10942;47.894;11.424;2023-05-19T02:41:29;8.70;99.90
21563;DHT22;10942;47.894;11.424;2023-05-19T02:43:55;8.60;99.90
21563;DHT22;10942;47.894;11.424;2023-05-19T02:46:22;8.60;99.90
21563;DHT22;10942;47.894;11.424;2023-05-19T02:48:49;8.70;99.90
21563;DHT22;10942;47.894;11.424;2023-05-19T02:51:15;8.60;99.90
21563;DHT22;10942;47.894;11.424;2023-05-19T02:53:41;8.60;99.90
21563;DHT22;10942;47.894;11.424;2023-05-19T02:56:07;8.60;99.90
21563;DHT22;10942;47.894;11.424;2023-05-19T02:58:32;8.70;99.90
21563;DHT22;10942;47.894;11.424;2023-05-19T03:00:58;8.60;99.90
21563;DHT22;10942;47.894;11.424;2023-05-19T03:03:23;8.60;99.90
21563;DHT22;10942;47.894;11.424;2023-05-19T03:05:50;8.60;99.90
21563;DHT22;10942;47.894;11.424;2023-05-19T03:08:16;8.60;99.90
21563;DHT22;10942;47.894;11.424;2023-05-19T03:10:41;8.40;99.90
21563;DHT22;10942;47.894;11.424;2023-05-19T03:18:01;8.40;99.90
21563;DHT22;10942;47.894;11.424;2023-05-19T03:20:26;8.40;99.90
21563;DHT22;10942;47.894;11.424;2023-05-19T03:22:52;8.40;99.90
21563;DHT22;10942;47.894;11.424;2023-05-19T03:25:18;8.50;99.90
21563;DHT22;10942;47.894;11.424;2023-05-19T03:27:43;8.50;99.90
21563;DHT22;10942;47.894;11.424;2023-05-19T03:30:10;8.40;99.90
21563;DHT22;10942;47.894;11.424;2023-05-19T03:32:48;8.30;99.90
21563;DHT22;10942;47.894;11.424;2023-05-19T03:35:16;8.40;99.90
21563;DHT22;10942;47.894;11.424;2023-05-19T03:37:42;8.30;99.90
21563;DHT22;10942;47.894;11.424;2023-05-19T03:40:08;8.50;99.90
21563;DHT22;10942;47.894;11.424;2023-05-19T03:42:36;8.40;99.90
21563;DHT22;10942;47.894;11.424;2023-05-19T03:45:02;8.50;99.90
21563;DHT22;10942;47.894;11.424;2023-05-19T03:47:29;8.50;99.90
21563;DHT22;10942;47.894;11.424;2023-05-19T03:50:16;8.40;99.90
21563;DHT22;10942;47.894;11.424;2023-05-19T03:52:50;8.40;99.90
21563;DHT22;10942;47.894;11.424;2023-05-19T03:55:26;8.50;99.90
21563;DHT22;10942;47.894;11.424;2023-05-19T03:57:54;8.50;99.90
21563;DHT22;10942;47.894;11.424;2023-05-19T04:00:21;8.50;99.90
21563;DHT22;10942;47.894;11.424;2023-05-19T04:02:48;8.60;99.90
21563;DHT22;10942;47.894;11.424;2023-05-19T04:05:14;8.60;99.90
21563;DHT22;10942;47.894;11.424;2023-05-19T04:07:40;8.60;99.90
21563;DHT22;10942;47.894;11.424;2023-05-19T04:10:06;8.60;99.90
21563;DHT22;10942;47.894;11.424;2023-05-19T04:12:32;8.60;99.90
21563;DHT22;10942;47.894;11.424;2023-05-19T04:14:58;8.60;99.90
21563;DHT22;10942;47.894;11.424;2023-05-19T04:17:24;8.80;99.90
21563;DHT22;10942;47.894;11.424;2023-05-19T04:19:54;8.60;99.90
21563;DHT22;10942;47.894;11.424;2023-05-19T04:22:21;8.50;99.90
21563;DHT22;10942;47.894;11.424;2023-05-19T04:24:46;8.60;99.90
21563;DHT22;10942;47.894;11.424;2023-05-19T04:27:14;8.60;99.90
21563;DHT22;10942;47.894;11.424;2023-05-19T04:29:40;8.60;99.90
21563;DHT22;10942;47.894;11.424;2023-05-19T04:32:07;8.60;99.90
21563;DHT22;10942;47.894;11.424;2023-05-19T04:34:34;8.60;99.90
21563;DHT22;10942;47.894;11.424;2023-05-19T04:37:04;8.70;99.90
21563;DHT22;10942;47.894;11.424;2023-05-19T04:39:31;8.70;99.90
21563;DHT22;10942;47.894;11.424;2023-05-19T04:41:58;8.60;99.90
21563;DHT22;10942;47.894;11.424;2023-05-19T04:44:24;8.70;99.90
21563;DHT22;10942;47.894;11.424;2023-05-19T04:46:51;8.70;99.90
21563;DHT22;10942;47.894;11.424;2023-05-19T04:49:19;8.70;99.90
21563;DHT22;10942;47.894;11.424;2023-05-19T04:51:45;8.80;99.90
21563;DHT22;10942;47.894;11.424;2023-05-19T04:54:15;8.90;99.90
21563;DHT22;10942;47.894;11.424;2023-05-19T04:56:40;8.80;99.90
21563;DHT22;10942;47.894;11.424;2023-05-19T04:59:08;8.90;99.90
21563;DHT22;10942;47.894;11.424;2023-05-19T05:01:34;8.90;99.90
21563;DHT22;10942;47.894;11.424;2023-05-19T05:04:08;9.00;99.90
21563;DHT22;10942;47.894;11.424;2023-05-19T05:06:34;9.00;99.90
21563;DHT22;10942;47.894;11.424;2023-05-19T05:09:04;9.10;99.90
21563;DHT22;10942;47.894;11.424;2023-05-19T05:11:30;9.00;99.90
21563;DHT22;10942;47.894;11.424;2023-05-19T05:13:56;9.10;99.90
21563;DHT22;10942;47.894;11.424;2023-05-19T05:16:25;9.10;99.90
21563;DHT22;10942;47.894;11.424;2023-05-19T05:18:51;8.90;99.90
21563;DHT22;10942;47.894;11.424;2023-05-19T05:21:17;9.00;99.90
21563;DHT22;10942;47.894;11.424;2023-05-19T05:23:43;9.00;99.90
21563;DHT22;10942;47.894;11.424;2023-05-19T05:26:16;9.10;99.90
21563;DHT22;10942;47.894;11.424;2023-05-19T05:28:49;9.20;99.90
21563;DHT22;10942;47.894;11.424;2023-05-19T05:31:15;9.30;99.90
21563;DHT22;10942;47.894;11.424;2023-05-19T05:33:43;9.40;99.90
21563;DHT22;10942;47.894;11.424;2023-05-19T05:36:09;9.50;99.90
21563;DHT22;10942;47.894;11.424;2023-05-19T05:38:35;9.60;99.90
21563;DHT22;10942;47.894;11.424;2023-05-19T05:58:23;9.70;99.90
21563;DHT22;10942;47.894;11.424;2023-05-19T06:00:48;9.90;99.90
21563;DHT22;10942;47.894;11.424;2023-05-19T06:03:16;10.00;99.90
21563;DHT22;10942;47.894;11.424;2023-05-19T06:05:42;10.20;99.90
21563;DHT22;10942;47.894;11.424;2023-05-19T06:08:08;10.30;99.90
21563;DHT22;10942;47.894;11.424;2023-05-19T06:10:34;10.40;99.90
21563;DHT22;10942;47.894;11.424;2023-05-19T06:13:05;10.30;99.90
21563;DHT22;10942;47.894;11.424;2023-05-19T06:15:31;10.40;99.90
21563;DHT22;10942;47.894;11.424;2023-05-19T06:18:06;10.50;99.90
21563;DHT22;10942;47.894;11.424;2023-05-19T06:20:31;10.60;99.90
21563;DHT22;10942;47.894;11.424;2023-05-19T06:22:57;10.70;99.90
21563;DHT22;10942;47.894;11.424;2023-05-19T06:25:25;10.70;99.90
21563;DHT22;10942;47.894;11.424;2023-05-19T06:27:51;11.00;99.90
21563;DHT22;10942;47.894;11.424;2023-05-19T06:30:18;11.30;99.90
21563;DHT22;10942;47.894;11.424;2023-05-19T06:32:56;11.30;99.90
21563;DHT22;10942;47.894;11.424;2023-05-19T06:35:24;11.30;99.90
21563;DHT22;10942;47.894;11.424;2023-05-19T06:37:49;11.20;99.90
21563;DHT22;10942;47.894;11.424;2023-05-19T06:40:15;11.40;99.90
21563;DHT22;10942;47.894;11.424;2023-05-19T06:42:42;11.80;99.90
21563;DHT22;10942;47.894;11.424;2023-05-19T06:47:48;12.80;99.90
21563;DHT22;10942;47.894;11.424;2023-05-19T06:52:42;13.90;99.90
21563;DHT22;10942;47.894;11.424;2023-05-19T07:19:43;14.90;99.90
21563;DHT22;10942;47.894;11.424;2023-05-19T07:22:09;16.80;99.90
21563;DHT22;10942;47.894;11.424;2023-05-19T07:27:02;18.60;99.90
21563;DHT22;10942;47.894;11.424;2023-05-19T07:29:28;18.60;99.90
21563;DHT22;10942;47.894;11.424;2023-05-19T07:31:53;17.90;99.90
21563;DHT22;10942;47.894;11.424;2023-05-19T07:34:22;17.90;99.90
21563;DHT22;10942;47.894;11.424;2023-05-19T07:36:48;17.60;99.90
21563;DHT22;10942;47.894;11.424;2023-05-19T07:39:14;17.30;99.90
21563;DHT22;10942;47.894;11.424;2023-05-19T07:44:06;15.90;99.90
21563;DHT22;10942;47.894;11.424;2023-05-19T07:48:58;15.10;99.90
21563;DHT22;10942;47.894;11.424;2023-05-19T07:51:24;15.10;99.90
21563;DHT22;10942;47.894;11.424;2023-05-19T07:53:50;15.00;99.90
21563;DHT22;10942;47.894;11.424;2023-05-19T07:56:16;14.50;99.90
21563;DHT22;10942;47.894;11.424;2023-05-19T07:58:41;14.40;99.90
21563;DHT22;10942;47.894;11.424;2023-05-19T08:01:07;14.10;99.90
21563;DHT22;10942;47.894;11.424;2023-05-19T08:03:33;13.70;99.90
21563;DHT22;10942;47.894;11.424;2023-05-19T08:05:58;13.60;99.90
21563;DHT22;10942;47.894;11.424;2023-05-19T08:08:24;13.50;99.90
21563;DHT22;10942;47.894;11.424;2023-05-19T08:13:16;13.30;99.90
21563;DHT22;10942;47.894;11.424;2023-05-19T08:15:42;13.30;99.90
21563;DHT22;10942;47.894;11.424;2023-05-19T08:18:08;13.30;99.90
21563;DHT22;10942;47.894;11.424;2023-05-19T08:20:34;13.30;99.90
21563;DHT22;10942;47.894;11.424;2023-05-19T08:22:59;13.30;99.90
21563;DHT22;10942;47.894;11.424;2023-05-19T08:25:25;13.80;99.90
21563;DHT22;10942;47.894;11.424;2023-05-19T08:27:51;14.00;99.90
21563;DHT22;10942;47.894;11.424;2023-05-19T08:30:16;14.00;99.90
21563;DHT22;10942;47.894;11.424;2023-05-19T08:32:42;14.20;99.90
21563;DHT22;10942;47.894;11.424;2023-05-19T08:35:08;14.30;99.90
21563;DHT22;10942;47.894;11.424;2023-05-19T08:37:34;13.90;99.90
21563;DHT22;10942;47.894;11.424;2023-05-19T08:40:03;13.70;99.90
21563;DHT22;10942;47.894;11.424;2023-05-19T08:42:33;13.60;99.90
21563;DHT22;10942;47.894;11.424;2023-05-19T08:45:00;13.40;99.90
21563;DHT22;10942;47.894;11.424;2023-05-19T08:47:26;13.60;99.90
21563;DHT22;10942;47.894;11.424;2023-05-19T08:49:58;13.50;99.90
21563;DHT22;10942;47.894;11.424;2023-05-19T08:55:31;15.10;99.90
21563;DHT22;10942;47.894;11.424;2023-05-19T08:58:02;16.20;99.90
21563;DHT22;10942;47.894;11.424;2023-05-19T09:00:28;16.30;99.90
21563;DHT22;10942;47.894;11.424;2023-05-19T09:02:54;16.10;99.90
21563;DHT22;10942;47.894;11.424;2023-05-19T09:05:22;16.20;99.90
21563;DHT22;10942;47.894;11.424;2023-05-19T09:07:47;16.70;99.90
21563;DHT22;10942;47.894;11.424;2023-05-19T09:10:14;16.10;99.90
21563;DHT22;10942;47.894;11.424;2023-05-19T09:12:45;16.70;99.90
21563;DHT22;10942;47.894;11.424;2023-05-19T09:15:17;17.30;99.90
21563;DHT22;10942;47.894;11.424;2023-05-19T09:17:45;17.40;99.90
21563;DHT22;10942;47.894;11.424;2023-05-19T09:20:12;16.50;99.90
21563;DHT22;10942;47.894;11.424;2023-05-19T09:22:45;15.90;99.90
21563;DHT22;10942;47.894;11.424;2023-05-19T09:25:21;15.50;99.90
21563;DHT22;10942;47.894;11.424;2023-05-19T09:27:47;15.20;99.90
21563;DHT22;10942;47.894;11.424;2023-05-19T09:30:17;15.30;99.90
21563;DHT22;10942;47.894;11.424;2023-05-19T09:35:10;15.10;99.90
21563;DHT22;10942;47.894;11.424;2023-05-19T09:37:39;14.90;99.90
21563;DHT22;10942;47.894;11.424;2023-05-19T09:40:09;14.40;99.90
21563;DHT22;10942;47.894;11.424;2023-05-19T09:42:38;14.30;99.90
21563;DHT22;10942;47.894;11.424;2023-05-19T09:45:04;14.10;99.90
21563;DHT22;10942;47.894;11.424;2023-05-19T09:50:01;14.30;99.90
21563;DHT22;10942;47.894;11.424;2023-05-19T09:52:27;14.20;99.90
21563;DHT22;10942;47.894;11.424;2023-05-19T09:54:53;14.10;99.90
21563;DHT22;10942;47.894;11.424;2023-05-19T09:57:25;14.10;99.90
21563;DHT22;10942;47.894;11.424;2023-05-19T09:59:53;14.00;99.90
21563;DHT22;10942;47.894;11.424;2023-05-19T10:02:19;13.80;99.90
21563;DHT22;10942;47.894;11.424;2023-05-19T10:04:46;13.60;99.90
21563;DHT22;10942;47.894;11.424;2023-05-19T10:07:13;13.40;99.90
21563;DHT22;10942;47.894;11.424;2023-05-19T10:09:40;13.10;99.90
21563;DHT22;10942;47.894;11.424;2023-05-19T10:12:08;13.00;99.90
21563;DHT22;10942;47.894;11.424;2023-05-19T10:17:02;13.00;99.90
21563;DHT22;10942;47.894;11.424;2023-05-19T10:19:28;12.90;99.90
21563;DHT22;10942;47.894;11.424;2023-05-19T10:24:20;12.70;99.90
21563;DHT22;10942;47.894;11.424;2023-05-19T10:26:54;12.70;99.90
21563;DHT22;10942;47.894;11.424;2023-05-19T10:29:31;12.80;99.90
21563;DHT22;10942;47.894;11.424;2023-05-19T10:32:01;12.80;99.90
21563;DHT22;10942;47.894;11.424;2023-05-19T10:37:28;12.90;99.90
21563;DHT22;10942;47.894;11.424;2023-05-19T10:39:56;13.00;99.90
21563;DHT22;10942;47.894;11.424;2023-05-19T10:42:31;13.10;99.90
21563;DHT22;10942;47.894;11.424;2023-05-19T10:45:43;13.00;99.90
21563;DHT22;10942;47.894;11.424;2023-05-19T10:48:00;13.10;99.90
21563;DHT22;10942;47.894;11.424;2023-05-19T10:50:26;13.00;99.90
21563;DHT22;10942;47.894;11.424;2023-05-19T10:52:54;13.10;99.90
21563;DHT22;10942;47.894;11.424;2023-05-19T10:55:43;13.10;99.90
21563;DHT22;10942;47.894;11.424;2023-05-19T10:58:10;13.10;99.90
21563;DHT22;10942;47.894;11.424;2023-05-19T11:00:38;13.10;99.90
21563;DHT22;10942;47.894;11.424;2023-05-19T11:03:14;13.10;99.90
21563;DHT22;10942;47.894;11.424;2023-05-19T11:05:41;13.10;99.90
21563;DHT22;10942;47.894;11.424;2023-05-19T11:08:10;13.10;99.90
21563;DHT22;10942;47.894;11.424;2023-05-19T11:10:37;12.90;99.90
21563;DHT22;10942;47.894;11.424;2023-05-19T11:13:06;12.90;99.90
21563;DHT22;10942;47.894;11.424;2023-05-19T11:15:35;12.90;99.90
21563;DHT22;10942;47.894;11.424;2023-05-19T11:18:03;12.90;99.90
21563;DHT22;10942;47.894;11.424;2023-05-19T11:20:29;12.90;99.90
21563;DHT22;10942;47.894;11.424;2023-05-19T11:23:13;12.90;99.90
21563;DHT22;10942;47.894;11.424;2023-05-19T11:25:46;13.10;99.90
21563;DHT22;10942;47.894;11.424;2023-05-19T11:28:14;13.00;99.90
21563;DHT22;10942;47.894;11.424;2023-05-19T11:30:41;13.10;99.90
21563;DHT22;10942;47.894;11.424;2023-05-19T11:33:08;13.10;99.90
21563;DHT22;10942;47.894;11.424;2023-05-19T11:35:35;13.20;99.90
21563;DHT22;10942;47.894;11.424;2023-05-19T11:38:02;13.20;99.90
21563;DHT22;10942;47.894;11.424;2023-05-19T11:40:28;13.10;99.90
21563;DHT22;10942;47.894;11.424;2023-05-19T11:42:54;13.20;99.90
21563;DHT22;10942;47.894;11.424;2023-05-19T11:45:24;13.20;99.90
21563;DHT22;10942;47.894;11.424;2023-05-19T11:47:50;13.20;99.90
21563;DHT22;10942;47.894;11.424;2023-05-19T11:50:16;13.20;99.90
21563;DHT22;10942;47.894;11.424;2023-05-19T11:52:45;13.30;99.90
21563;DHT22;10942;47.894;11.424;2023-05-19T11:55:16;13.40;99.90
21563;DHT22;10942;47.894;11.424;2023-05-19T11:57:56;13.40;99.90
21563;DHT22;10942;47.894;11.424;2023-05-19T12:00:44;13.40;99.90
21563;DHT22;10942;47.894;11.424;2023-05-19T12:03:11;13.40;99.90
21563;DHT22;10942;47.894;11.424;2023-05-19T12:05:42;13.50;99.90
21563;DHT22;10942;47.894;11.424;2023-05-19T12:08:10;13.30;99.90
21563;DHT22;10942;47.894;11.424;2023-05-19T12:10:37;13.40;99.90
21563;DHT22;10942;47.894;11.424;2023-05-19T12:13:04;13.40;99.90
21563;DHT22;10942;47.894;11.424;2023-05-19T12:15:30;13.40;99.90
21563;DHT22;10942;47.894;11.424;2023-05-19T12:17:58;13.50;99.90
21563;DHT22;10942;47.894;11.424;2023-05-19T12:20:26;13.30;99.90
21563;DHT22;10942;47.894;11.424;2023-05-19T12:22:56;13.30;99.90
21563;DHT22;10942;47.894;11.424;2023-05-19T12:25:22;13.30;99.90
21563;DHT22;10942;47.894;11.424;2023-05-19T12:27:49;13.30;99.90
21563;DHT22;10942;47.894;11.424;2023-05-19T12:30:17;13.50;99.90
21563;DHT22;10942;47.894;11.424;2023-05-19T12:32:44;13.60;99.90
21563;DHT22;10942;47.894;11.424;2023-05-19T12:35:10;13.80;99.90
21563;DHT22;10942;47.894;11.424;2023-05-19T12:37:40;13.70;99.90
21563;DHT22;10942;47.894;11.424;2023-05-19T12:40:07;13.50;99.90
21563;DHT22;10942;47.894;11.424;2023-05-19T12:42:33;13.40;99.90
21563;DHT22;10942;47.894;11.424;2023-05-19T12:45:02;13.50;99.90
21563;DHT22;10942;47.894;11.424;2023-05-19T12:47:35;13.40;99.90
21563;DHT22;10942;47.894;11.424;2023-05-19T12:52:31;13.40;99.90
21563;DHT22;10942;47.894;11.424;2023-05-19T12:55:09;13.40;99.90
21563;DHT22;10942;47.894;11.424;2023-05-19T12:57:37;13.40;99.90
21563;DHT22;10942;47.894;11.424;2023-05-19T13:00:05;13.40;99.90
21563;DHT22;10942;47.894;11.424;2023-05-19T13:02:35;13.20;99.90
